Eko 2 — SY9957 — position and weather

sailwx.info

Track history (hours):
 
Tides and Currents Weather Stations Pressure Air Temp Water Temp Dewpoint Dewpoint Depression Visibility Wind Speed Wind Dir Waves Ship Positions

Eko 2

Last reported at 2016-May-06 18:33 UTC. Time now 2016-May-06 18:41 UTC.
Position N 37°13' E 025°43'.

Length 89 m; draft 4.3 m.

Type: Ship (hazmat cat A). MMSI: 240827000.

Date/timePositionNaut miles runAvg speedWind from/ knotsBaromVisibWave heightAir tempDewpointWater temp
2016-May-06 18:33N 37°13' E 025°43'10 9.7
2016-May-06 17:33N 37°15' E 025°31'9 9.4
2016-May-06 16:33N 37°17' E 025°20'10 9.6
2016-May-06 15:33N 37°19' E 025°08'10 9.7
2016-May-06 14:33N 37°21' E 024°56'50 9.8
2016-May-06 09:25N 37°36' E 023°55'8 9.8
2016-May-06 08:33N 37°39' E 023°45'10 9.6
2016-May-06 07:33N 37°47' E 023°39'1110.5
2016-May-06 06:33N 37°57' E 023°36'6 5.5
2016-May-06 05:32N 38°02' E 023°32'0 0.0
2016-May-06 04:32N 38°02' E 023°32'0 0.0
2016-May-06 03:32N 38°02' E 023°32'0 0.0
2016-May-06 02:32N 38°02' E 023°32'0 0.0
2016-May-06 01:32N 38°02' E 023°32'0 0.0
2016-May-06 00:32N 38°02' E 023°32'0 0.0
2016-May-05 23:32N 38°02' E 023°32'0 0.0
2016-May-05 22:32N 38°02' E 023°32'0 0.0
2016-May-05 21:32N 38°02' E 023°32'0 0.0
2016-May-05 20:32N 38°02' E 023°32'0 0.0
2016-May-05 19:32N 38°02' E 023°32'0 0.0
2016-May-05 18:32N 38°02' E 023°32'0 0.0
2016-May-05 17:32N 38°02' E 023°32'0 0.0
2016-May-05 16:32N 38°02' E 023°32'0 0.0
2016-May-05 15:32N 38°02' E 023°32'0 0.0
2016-May-05 14:32N 38°02' E 023°32'0 0.0
2016-May-05 13:32N 38°02' E 023°32'0 0.0
2016-May-05 12:32N 38°02' E 023°32'0 0.0
2016-May-05 11:32N 38°02' E 023°32'0 0.0
2016-May-05 10:32N 38°02' E 023°32'0 0.0
2016-May-05 09:32N 38°02' E 023°32'0 0.0
2016-May-05 08:32N 38°02' E 023°32'0 0.0
2016-May-05 07:32N 38°02' E 023°32'0 0.0
2016-May-05 06:32N 38°02' E 023°32'0 0.0
2016-May-05 05:34N 38°02' E 023°32'6 6.1
2016-May-05 04:33N 37°56' E 023°35'1010.1
2016-May-05 03:33N 37°47' E 023°41'1110.5
2016-May-05 02:33N 37°38' E 023°49'1110.9
2016-May-05 01:31N 37°31' E 023°59'4210.7
2016-May-04 21:33N 37°11' E 024°46'1111.0
2016-May-04 20:33N 37°08' E 024°59'8 6.9
2016-May-04 19:23N 37°05' E 025°09'0 0.0
2016-May-04 18:32N 37°05' E 025°09'0 0.0
2016-May-04 17:30N 37°05' E 025°09'0 0.0
2016-May-04 16:06N 37°05' E 025°09'0 0.0
2016-May-04 06:19N 37°05' E 025°09'0 0.0
2016-May-04 05:28N 37°05' E 025°09'0 0.0
2016-May-04 04:27N 37°05' E 025°09'3 2.8
2016-May-04 03:33N 37°08' E 025°09'8 7.8
2016-May-04 02:33N 37°09' E 025°19'19 9.1
2016-May-04 00:29N 36°50' E 025°19'29 0.7
2016-May-02 08:25N 37°01' E 024°46'  
2016-Apr-28 08:34N 37°02' E 025°18'5 5.3
2016-Apr-28 07:33N 37°06' E 025°22'1 1.1
2016-Apr-28 06:34N 37°07' E 025°21'1 1.1
2016-Apr-28 05:32N 37°06' E 025°22'0 0.0
2016-Apr-28 04:32N 37°06' E 025°22'0 0.0
2016-Apr-28 03:32N 37°06' E 025°22'0 0.0
2016-Apr-28 02:32N 37°06' E 025°22'0 0.0
2016-Apr-28 01:32N 37°06' E 025°22'0 0.0
2016-Apr-28 00:32N 37°06' E 025°22'1 1.4
2016-Apr-27 23:33N 37°08' E 025°22'1111.5
2016-Apr-27 22:33N 37°19' E 025°19'9 8.6
2016-Apr-27 21:32N 37°28' E 025°19'0 0.1
2016-Apr-27 20:32N 37°28' E 025°20'0 0.0
2016-Apr-27 19:32N 37°28' E 025°20'0 0.0
2016-Apr-27 18:32N 37°28' E 025°20'0 0.0
2016-Apr-27 17:32N 37°28' E 025°20'0 0.0
2016-Apr-27 16:32N 37°28' E 025°20'0 0.0
2016-Apr-27 15:32N 37°28' E 025°20'5 4.6
2016-Apr-27 14:33N 37°24' E 025°17'1211.4
2016-Apr-27 13:29N 37°13' E 025°11'7 8.1
2016-Apr-27 12:34N 37°05' E 025°09'0 0.0
2016-Apr-27 11:27N 37°05' E 025°09'0 0.0
2016-Apr-27 10:29N 37°05' E 025°09'0 0.0
2016-Apr-27 03:27N 37°05' E 025°09'5 5.6
2016-Apr-27 02:33N 37°09' E 025°12'1110.8
2016-Apr-27 01:33N 37°12' E 025°25'1211.0
2016-Apr-27 00:30N 37°12' E 025°40'  
Track history (hours):
 
Tides and Currents Weather Stations Pressure Air Temp Water Temp Dewpoint Dewpoint Depression Visibility Wind Speed Wind Dir Waves Ship Positions

Eko 2

Last reported at 2016-May-06 18:33 UTC. Time now 2016-May-06 18:41 UTC.
Position N 37°13' E 025°43'.

Length 89 m; draft 4.3 m.

Type: Ship (hazmat cat A). MMSI: 240827000.

Date/timePositionNaut miles runAvg speedWind from/ knotsBaromVisibWave heightAir tempDewpointWater temp
2016-May-06 18:33N 37°13' E 025°43'10 9.7
2016-May-06 17:33N 37°15' E 025°31'9 9.4
2016-May-06 16:33N 37°17' E 025°20'10 9.6
2016-May-06 15:33N 37°19' E 025°08'10 9.7
2016-May-06 14:33N 37°21' E 024°56'50 9.8
2016-May-06 09:25N 37°36' E 023°55'8 9.8
2016-May-06 08:33N 37°39' E 023°45'10 9.6
2016-May-06 07:33N 37°47' E 023°39'1110.5
2016-May-06 06:33N 37°57' E 023°36'6 5.5
2016-May-06 05:32N 38°02' E 023°32'0 0.0
2016-May-06 04:32N 38°02' E 023°32'0 0.0
2016-May-06 03:32N 38°02' E 023°32'0 0.0
2016-May-06 02:32N 38°02' E 023°32'0 0.0
2016-May-06 01:32N 38°02' E 023°32'0 0.0
2016-May-06 00:32N 38°02' E 023°32'0 0.0
2016-May-05 23:32N 38°02' E 023°32'0 0.0
2016-May-05 22:32N 38°02' E 023°32'0 0.0
2016-May-05 21:32N 38°02' E 023°32'0 0.0
2016-May-05 20:32N 38°02' E 023°32'0 0.0
2016-May-05 19:32N 38°02' E 023°32'0 0.0
2016-May-05 18:32N 38°02' E 023°32'0 0.0
2016-May-05 17:32N 38°02' E 023°32'0 0.0
2016-May-05 16:32N 38°02' E 023°32'0 0.0
2016-May-05 15:32N 38°02' E 023°32'0 0.0
2016-May-05 14:32N 38°02' E 023°32'0 0.0
2016-May-05 13:32N 38°02' E 023°32'0 0.0
2016-May-05 12:32N 38°02' E 023°32'0 0.0
2016-May-05 11:32N 38°02' E 023°32'0 0.0
2016-May-05 10:32N 38°02' E 023°32'0 0.0
2016-May-05 09:32N 38°02' E 023°32'0 0.0
2016-May-05 08:32N 38°02' E 023°32'0 0.0
2016-May-05 07:32N 38°02' E 023°32'0 0.0
2016-May-05 06:32N 38°02' E 023°32'0 0.0
2016-May-05 05:34N 38°02' E 023°32'6 6.1
2016-May-05 04:33N 37°56' E 023°35'1010.1
2016-May-05 03:33N 37°47' E 023°41'1110.5
2016-May-05 02:33N 37°38' E 023°49'1110.9
2016-May-05 01:31N 37°31' E 023°59'4210.7
2016-May-04 21:33N 37°11' E 024°46'1111.0
2016-May-04 20:33N 37°08' E 024°59'8 6.9
2016-May-04 19:23N 37°05' E 025°09'0 0.0
2016-May-04 18:32N 37°05' E 025°09'0 0.0
2016-May-04 17:30N 37°05' E 025°09'0 0.0
2016-May-04 16:06N 37°05' E 025°09'0 0.0
2016-May-04 06:19N 37°05' E 025°09'0 0.0
2016-May-04 05:28N 37°05' E 025°09'0 0.0
2016-May-04 04:27N 37°05' E 025°09'3 2.8
2016-May-04 03:33N 37°08' E 025°09'8 7.8
2016-May-04 02:33N 37°09' E 025°19'19 9.1
2016-May-04 00:29N 36°50' E 025°19'29 0.7
2016-May-02 08:25N 37°01' E 024°46'  
2016-Apr-28 08:34N 37°02' E 025°18'5 5.3
2016-Apr-28 07:33N 37°06' E 025°22'1 1.1
2016-Apr-28 06:34N 37°07' E 025°21'1 1.1
2016-Apr-28 05:32N 37°06' E 025°22'0 0.0
2016-Apr-28 04:32N 37°06' E 025°22'0 0.0
2016-Apr-28 03:32N 37°06' E 025°22'0 0.0
2016-Apr-28 02:32N 37°06' E 025°22'0 0.0
2016-Apr-28 01:32N 37°06' E 025°22'0 0.0
2016-Apr-28 00:32N 37°06' E 025°22'1 1.4
2016-Apr-27 23:33N 37°08' E 025°22'1111.5
2016-Apr-27 22:33N 37°19' E 025°19'9 8.6
2016-Apr-27 21:32N 37°28' E 025°19'0 0.1
2016-Apr-27 20:32N 37°28' E 025°20'0 0.0
2016-Apr-27 19:32N 37°28' E 025°20'0 0.0
2016-Apr-27 18:32N 37°28' E 025°20'0 0.0
2016-Apr-27 17:32N 37°28' E 025°20'0 0.0
2016-Apr-27 16:32N 37°28' E 025°20'0 0.0
2016-Apr-27 15:32N 37°28' E 025°20'5 4.6
2016-Apr-27 14:33N 37°24' E 025°17'1211.4
2016-Apr-27 13:29N 37°13' E 025°11'7 8.1
2016-Apr-27 12:34N 37°05' E 025°09'0 0.0
2016-Apr-27 11:27N 37°05' E 025°09'0 0.0
2016-Apr-27 10:29N 37°05' E 025°09'0 0.0
2016-Apr-27 03:27N 37°05' E 025°09'5 5.6
2016-Apr-27 02:33N 37°09' E 025°12'1110.8
2016-Apr-27 01:33N 37°12' E 025°25'1211.0
2016-Apr-27 00:30N 37°12' E 025°40'  

Dump ship's entire track history